Mumbai Express — V2AH1 — position and weather

sailwx.info

Track history (hours):
 
Tides and Currents Weather Stations Pressure Air Temp Water Temp Dewpoint Dewpoint Depression Visibility Wind Speed Wind Dir Waves Ship Positions

Mumbai Express

Last reported at 2015-Aug-04 15:33 UTC. Time now 2015-Aug-04 15:54 UTC.
Position N 43°25' E 004°50'.

Length 260.7 m; beam 32.3 m; draft 12.5 m.

Type: Ship (hazmat cat A). MMSI: 304010914.

Date/timePositionNaut miles runAvg speedWind from/ knotsBaromVisibWave heightAir tempDewpointWater temp
2015-Aug-04 15:33N 43°25' E 004°50'0 0.0
2015-Aug-04 14:33N 43°25' E 004°50'0 0.0
2015-Aug-04 13:32N 43°25' E 004°50'0 0.0
2015-Aug-04 12:32N 43°25' E 004°50'0 0.0
2015-Aug-04 11:31N 43°25' E 004°50'0 0.2
2015-Aug-04 10:34N 43°25' E 004°50'8 8.2
2015-Aug-04 09:33N 43°20' E 004°59'1111.1
2015-Aug-04 08:33N 43°09' E 005°02'8 8.4
2015-Aug-04 07:33N 43°02' E 004°55'0 0.1
2015-Aug-04 06:33N 43°02' E 004°55'1 1.4
2015-Aug-04 05:33N 43°03' E 004°57'0 0.3
2015-Aug-04 04:33N 43°03' E 004°57'0 0.1
2015-Aug-04 03:33N 43°03' E 004°57'1 0.6
2015-Aug-04 02:33N 43°03' E 004°56'2 2.0
2015-Aug-04 01:33N 43°01' E 004°54'7 6.7
2015-Aug-04 00:33N 42°56' E 004°49'6 6.3
2015-Aug-03 23:33N 42°50' E 004°45'6 6.4
2015-Aug-03 22:33N 42°45' E 004°40'7 6.7
2015-Aug-03 21:33N 42°39' E 004°35'7 7.2
2015-Aug-03 20:33N 42°33' E 004°30'8 7.8
2015-Aug-03 19:33N 42°27' E 004°24'8 7.5
2015-Aug-03 18:33N 42°20' E 004°19'8 7.6
2015-Aug-03 17:33N 42°14' E 004°13'8 8.0
2015-Aug-03 16:33N 42°08' E 004°06'8 8.0
2015-Aug-03 15:33N 42°01' E 004°01'8 7.7
2015-Aug-03 14:33N 41°56' E 003°53'7 7.5
2015-Aug-03 13:33N 41°51' E 003°45'7 7.0
2015-Aug-03 12:33N 41°47' E 003°37'7 7.1
2015-Aug-03 11:31N 41°43' E 003°29'9 8.9
2015-Aug-03 10:33N 41°38' E 003°20'8 8.2
2015-Aug-03 09:31N 41°32' E 003°12'9 9.2
2015-Aug-03 08:31N 41°27' E 003°02'9 9.1
2015-Aug-03 07:33N 41°22' E 002°52'1615.7
2015-Aug-03 06:33N 41°12' E 002°35'1313.2
2015-Aug-03 05:33N 41°04' E 002°22'10 9.5
2015-Aug-03 04:33N 40°58' E 002°12'9 9.3
2015-Aug-03 03:33N 40°53' E 002°02'9 9.2
2015-Aug-03 02:33N 40°47' E 001°52'9 9.4
2015-Aug-03 01:33N 40°41' E 001°42'9 9.4
2015-Aug-03 00:33N 40°36' E 001°32'10 9.5
2015-Aug-02 23:33N 40°30' E 001°22'10 9.7
2015-Aug-02 22:33N 40°24' E 001°12'10 9.7
2015-Aug-02 21:33N 40°19' E 001°02'10 9.6
2015-Aug-02 20:33N 40°13' E 000°52'10 9.7
2015-Aug-02 19:30N 40°06' E 000°41'9 9.8
2015-Aug-02 18:33N 40°01' E 000°32'10 9.7
2015-Aug-02 17:33N 39°54' E 000°22'11 9.6
2015-Aug-02 16:21N 39°46' E 000°12'17 9.3
2015-Aug-02 14:33N 39°35' W 000°04'9 8.7
2015-Aug-02 13:28N 39°28' W 000°13'6 5.8
2015-Aug-02 12:31N 39°26' W 000°20'0 0.0
2015-Aug-02 11:33N 39°26' W 000°20'0 0.0
2015-Aug-02 10:33N 39°26' W 000°20'0 0.0
2015-Aug-02 09:33N 39°26' W 000°20'0 0.0
2015-Aug-02 08:26N 39°26' W 000°20'0 0.0
2015-Aug-02 07:32N 39°26' W 000°20'0 0.0
2015-Aug-02 06:31N 39°26' W 000°20'0 0.0
2015-Aug-02 05:33N 39°26' W 000°20'3 2.7
2015-Aug-02 04:33N 39°25' W 000°17'9014.6
2015-Aug-01 22:25N 37°55' W 000°12'1719.8
2015-Aug-01 21:33N 37°41' W 000°24'2119.6
2015-Aug-01 20:28N 37°25' W 000°42'41616.6
2015-Jul-31 19:27N 37°17' W 009°26'1820.0
2015-Jul-31 18:33N 37°32' W 009°13'2020.1
2015-Jul-31 17:33N 37°48' W 008°58'10 9.6
2015-Jul-31 16:31N 37°56' W 008°51'0 0.0
2015-Jul-31 15:33N 37°56' W 008°51'0 0.0
2015-Jul-31 14:33N 37°56' W 008°51'0 0.0
2015-Jul-31 13:32N 37°56' W 008°51'0 0.0
2015-Jul-31 12:32N 37°56' W 008°51'0 0.0
2015-Jul-31 11:32N 37°56' W 008°51'0 0.0
2015-Jul-31 10:31N 37°56' W 008°51'0 0.0
2015-Jul-31 09:31N 37°56' W 008°51'0 0.5
2015-Jul-31 08:33N 37°56' W 008°51'2 1.7
2015-Jul-31 07:33N 37°54' W 008°51'0 0.2
2015-Jul-31 06:31N 37°54' W 008°51'0 0.0
2015-Jul-31 05:31N 37°54' W 008°51'0 0.0
2015-Jul-31 04:33N 37°54' W 008°51'0 0.0
2015-Jul-31 03:33N 37°54' W 008°51'0 0.0
2015-Jul-31 02:33N 37°54' W 008°51'0 0.0
2015-Jul-31 01:32N 37°54' W 008°51'0 0.0
2015-Jul-31 00:32N 37°54' W 008°51'0 0.0
2015-Jul-30 23:31N 37°54' W 008°51'0 0.0
2015-Jul-30 22:31N 37°54' W 008°51'0 0.0
2015-Jul-30 21:33N 37°54' W 008°51'0 0.0
2015-Jul-30 20:33N 37°54' W 008°51'0 0.0
2015-Jul-30 19:33N 37°54' W 008°51'0 0.0
2015-Jul-30 18:32N 37°54' W 008°51'0 0.0
2015-Jul-30 17:32N 37°54' W 008°51'0 0.0
2015-Jul-30 16:31N 37°54' W 008°51'0 0.0
2015-Jul-30 15:31N 37°54' W 008°51'0 0.0
2015-Jul-30 14:33N 37°54' W 008°51'1 0.9
2015-Jul-30 13:33N 37°54' W 008°52'9 9.0
2015-Jul-30 12:33N 38°00' W 009°01'1515.2
2015-Jul-30 11:33N 38°09' W 009°17'1817.7
2015-Jul-30 10:33N 38°18' W 009°36'1818.0
2015-Jul-30 09:33N 38°28' W 009°56'1717.0
2015-Jul-30 08:33N 38°42' W 010°07'1817.8
2015-Jul-30 07:33N 39°00' W 010°07'1817.9
2015-Jul-30 06:33N 39°18' W 010°07'5713.5
2015-Jul-30 02:22N 40°15' W 010°07'70513.6
2015-Jul-27 22:28N 50°16' W 001°23'2318.0
2015-Jul-27 21:13N 50°22' W 000°49'1117.1
2015-Jul-27 20:33N 50°24' W 000°32'1616.5
2015-Jul-27 19:33N 50°28' W 000°07'1615.9
2015-Jul-27 18:33N 50°32' E 000°17'1515.3
2015-Jul-27 17:33N 50°39' E 000°39'1615.7
2015-Jul-27 16:33N 50°48' E 000°60'1716.7
2015-Jul-27 15:33N 50°57' E 001°21'1717.4
2015-Jul-27 14:33N 51°10' E 001°41'1717.0
2015-Jul-27 13:33N 51°23' E 001°57'1514.8
2015-Jul-27 12:32N 51°21' E 002°21'1313.7
2015-Jul-27 11:33N 51°23' E 002°42'1313.4
2015-Jul-27 10:33N 51°24' E 003°04'1616.0
2015-Jul-27 09:33N 51°25' E 003°29'9 9.4
2015-Jul-27 08:33N 51°23' E 003°44'1110.5
2015-Jul-27 07:34N 51°26' E 003°60'9 9.1
2015-Jul-27 06:33N 51°23' E 004°13'3 3.2
2015-Jul-27 05:33N 51°21' E 004°17'0 0.4
2015-Jul-27 04:33N 51°21' E 004°18'2 1.6
2015-Jul-27 03:33N 51°19' E 004°19'0 0.0
2015-Jul-27 02:33N 51°19' E 004°19'0 0.0
2015-Jul-27 01:32N 51°19' E 004°19'0 0.0
2015-Jul-27 00:26N 51°19' E 004°19'0 0.0
2015-Jul-26 23:32N 51°19' E 004°19'0 0.0
2015-Jul-26 22:31N 51°19' E 004°19'0 0.0
2015-Jul-26 21:31N 51°19' E 004°19'0 0.0
2015-Jul-26 20:33N 51°19' E 004°19'0 0.0
2015-Jul-26 19:30N 51°19' E 004°19'0 0.0
2015-Jul-26 18:29N 51°19' E 004°19'0 0.0
2015-Jul-26 17:32N 51°19' E 004°19'0 0.0
2015-Jul-26 16:32N 51°19' E 004°19'0 0.2
2015-Jul-26 15:33N 51°20' E 004°20'2 2.0
2015-Jul-26 14:33N 51°21' E 004°17'1 1.3
2015-Jul-26 13:33N 51°21' E 004°15'9 8.6
2015-Jul-26 12:33N 51°23' E 004°02'7 6.9
2015-Jul-26 11:33N 51°21' E 003°52'9 9.3
2015-Jul-26 10:33N 51°26' E 003°40'1110.5
2015-Jul-26 09:33N 51°25' E 003°23'1414.5
2015-Jul-26 08:33N 51°28' E 003°00'22 4.3
2015-Jul-26 03:23N 51°47' E 003°18'0 0.0
2015-Jul-25 22:28N 51°47' E 003°18'6 6.8
2015-Jul-25 21:33N 51°53' E 003°18'6020.3
2015-Jul-25 18:33N 52°51' E 003°47'2215.1
2015-Jul-25 17:08N 53°04' E 004°15'2220.8
2015-Jul-25 16:04N 53°24' E 004°33'  
Track history (hours):
 
Tides and Currents Weather Stations Pressure Air Temp Water Temp Dewpoint Dewpoint Depression Visibility Wind Speed Wind Dir Waves Ship Positions

Mumbai Express

Last reported at 2015-Aug-04 15:33 UTC. Time now 2015-Aug-04 15:54 UTC.
Position N 43°25' E 004°50'.

Length 260.7 m; beam 32.3 m; draft 12.5 m.

Type: Ship (hazmat cat A). MMSI: 304010914.

Date/timePositionNaut miles runAvg speedWind from/ knotsBaromVisibWave heightAir tempDewpointWater temp
2015-Aug-04 15:33N 43°25' E 004°50'0 0.0
2015-Aug-04 14:33N 43°25' E 004°50'0 0.0
2015-Aug-04 13:32N 43°25' E 004°50'0 0.0
2015-Aug-04 12:32N 43°25' E 004°50'0 0.0
2015-Aug-04 11:31N 43°25' E 004°50'0 0.2
2015-Aug-04 10:34N 43°25' E 004°50'8 8.2
2015-Aug-04 09:33N 43°20' E 004°59'1111.1
2015-Aug-04 08:33N 43°09' E 005°02'8 8.4
2015-Aug-04 07:33N 43°02' E 004°55'0 0.1
2015-Aug-04 06:33N 43°02' E 004°55'1 1.4
2015-Aug-04 05:33N 43°03' E 004°57'0 0.3
2015-Aug-04 04:33N 43°03' E 004°57'0 0.1
2015-Aug-04 03:33N 43°03' E 004°57'1 0.6
2015-Aug-04 02:33N 43°03' E 004°56'2 2.0
2015-Aug-04 01:33N 43°01' E 004°54'7 6.7
2015-Aug-04 00:33N 42°56' E 004°49'6 6.3
2015-Aug-03 23:33N 42°50' E 004°45'6 6.4
2015-Aug-03 22:33N 42°45' E 004°40'7 6.7
2015-Aug-03 21:33N 42°39' E 004°35'7 7.2
2015-Aug-03 20:33N 42°33' E 004°30'8 7.8
2015-Aug-03 19:33N 42°27' E 004°24'8 7.5
2015-Aug-03 18:33N 42°20' E 004°19'8 7.6
2015-Aug-03 17:33N 42°14' E 004°13'8 8.0
2015-Aug-03 16:33N 42°08' E 004°06'8 8.0
2015-Aug-03 15:33N 42°01' E 004°01'8 7.7
2015-Aug-03 14:33N 41°56' E 003°53'7 7.5
2015-Aug-03 13:33N 41°51' E 003°45'7 7.0
2015-Aug-03 12:33N 41°47' E 003°37'7 7.1
2015-Aug-03 11:31N 41°43' E 003°29'9 8.9
2015-Aug-03 10:33N 41°38' E 003°20'8 8.2
2015-Aug-03 09:31N 41°32' E 003°12'9 9.2
2015-Aug-03 08:31N 41°27' E 003°02'9 9.1
2015-Aug-03 07:33N 41°22' E 002°52'1615.7
2015-Aug-03 06:33N 41°12' E 002°35'1313.2
2015-Aug-03 05:33N 41°04' E 002°22'10 9.5
2015-Aug-03 04:33N 40°58' E 002°12'9 9.3
2015-Aug-03 03:33N 40°53' E 002°02'9 9.2
2015-Aug-03 02:33N 40°47' E 001°52'9 9.4
2015-Aug-03 01:33N 40°41' E 001°42'9 9.4
2015-Aug-03 00:33N 40°36' E 001°32'10 9.5
2015-Aug-02 23:33N 40°30' E 001°22'10 9.7
2015-Aug-02 22:33N 40°24' E 001°12'10 9.7
2015-Aug-02 21:33N 40°19' E 001°02'10 9.6
2015-Aug-02 20:33N 40°13' E 000°52'10 9.7
2015-Aug-02 19:30N 40°06' E 000°41'9 9.8
2015-Aug-02 18:33N 40°01' E 000°32'10 9.7
2015-Aug-02 17:33N 39°54' E 000°22'11 9.6
2015-Aug-02 16:21N 39°46' E 000°12'17 9.3
2015-Aug-02 14:33N 39°35' W 000°04'9 8.7
2015-Aug-02 13:28N 39°28' W 000°13'6 5.8
2015-Aug-02 12:31N 39°26' W 000°20'0 0.0
2015-Aug-02 11:33N 39°26' W 000°20'0 0.0
2015-Aug-02 10:33N 39°26' W 000°20'0 0.0
2015-Aug-02 09:33N 39°26' W 000°20'0 0.0
2015-Aug-02 08:26N 39°26' W 000°20'0 0.0
2015-Aug-02 07:32N 39°26' W 000°20'0 0.0
2015-Aug-02 06:31N 39°26' W 000°20'0 0.0
2015-Aug-02 05:33N 39°26' W 000°20'3 2.7
2015-Aug-02 04:33N 39°25' W 000°17'9014.6
2015-Aug-01 22:25N 37°55' W 000°12'1719.8
2015-Aug-01 21:33N 37°41' W 000°24'2119.6
2015-Aug-01 20:28N 37°25' W 000°42'41616.6
2015-Jul-31 19:27N 37°17' W 009°26'1820.0
2015-Jul-31 18:33N 37°32' W 009°13'2020.1
2015-Jul-31 17:33N 37°48' W 008°58'10 9.6
2015-Jul-31 16:31N 37°56' W 008°51'0 0.0
2015-Jul-31 15:33N 37°56' W 008°51'0 0.0
2015-Jul-31 14:33N 37°56' W 008°51'0 0.0
2015-Jul-31 13:32N 37°56' W 008°51'0 0.0
2015-Jul-31 12:32N 37°56' W 008°51'0 0.0
2015-Jul-31 11:32N 37°56' W 008°51'0 0.0
2015-Jul-31 10:31N 37°56' W 008°51'0 0.0
2015-Jul-31 09:31N 37°56' W 008°51'0 0.5
2015-Jul-31 08:33N 37°56' W 008°51'2 1.7
2015-Jul-31 07:33N 37°54' W 008°51'0 0.2
2015-Jul-31 06:31N 37°54' W 008°51'0 0.0
2015-Jul-31 05:31N 37°54' W 008°51'0 0.0
2015-Jul-31 04:33N 37°54' W 008°51'0 0.0
2015-Jul-31 03:33N 37°54' W 008°51'0 0.0
2015-Jul-31 02:33N 37°54' W 008°51'0 0.0
2015-Jul-31 01:32N 37°54' W 008°51'0 0.0
2015-Jul-31 00:32N 37°54' W 008°51'0 0.0
2015-Jul-30 23:31N 37°54' W 008°51'0 0.0
2015-Jul-30 22:31N 37°54' W 008°51'0 0.0
2015-Jul-30 21:33N 37°54' W 008°51'0 0.0
2015-Jul-30 20:33N 37°54' W 008°51'0 0.0
2015-Jul-30 19:33N 37°54' W 008°51'0 0.0
2015-Jul-30 18:32N 37°54' W 008°51'0 0.0
2015-Jul-30 17:32N 37°54' W 008°51'0 0.0
2015-Jul-30 16:31N 37°54' W 008°51'0 0.0
2015-Jul-30 15:31N 37°54' W 008°51'0 0.0
2015-Jul-30 14:33N 37°54' W 008°51'1 0.9
2015-Jul-30 13:33N 37°54' W 008°52'9 9.0
2015-Jul-30 12:33N 38°00' W 009°01'1515.2
2015-Jul-30 11:33N 38°09' W 009°17'1817.7
2015-Jul-30 10:33N 38°18' W 009°36'1818.0
2015-Jul-30 09:33N 38°28' W 009°56'1717.0
2015-Jul-30 08:33N 38°42' W 010°07'1817.8
2015-Jul-30 07:33N 39°00' W 010°07'1817.9
2015-Jul-30 06:33N 39°18' W 010°07'5713.5
2015-Jul-30 02:22N 40°15' W 010°07'70513.6
2015-Jul-27 22:28N 50°16' W 001°23'2318.0
2015-Jul-27 21:13N 50°22' W 000°49'1117.1
2015-Jul-27 20:33N 50°24' W 000°32'1616.5
2015-Jul-27 19:33N 50°28' W 000°07'1615.9
2015-Jul-27 18:33N 50°32' E 000°17'1515.3
2015-Jul-27 17:33N 50°39' E 000°39'1615.7
2015-Jul-27 16:33N 50°48' E 000°60'1716.7
2015-Jul-27 15:33N 50°57' E 001°21'1717.4
2015-Jul-27 14:33N 51°10' E 001°41'1717.0
2015-Jul-27 13:33N 51°23' E 001°57'1514.8
2015-Jul-27 12:32N 51°21' E 002°21'1313.7
2015-Jul-27 11:33N 51°23' E 002°42'1313.4
2015-Jul-27 10:33N 51°24' E 003°04'1616.0
2015-Jul-27 09:33N 51°25' E 003°29'9 9.4
2015-Jul-27 08:33N 51°23' E 003°44'1110.5
2015-Jul-27 07:34N 51°26' E 003°60'9 9.1
2015-Jul-27 06:33N 51°23' E 004°13'3 3.2
2015-Jul-27 05:33N 51°21' E 004°17'0 0.4
2015-Jul-27 04:33N 51°21' E 004°18'2 1.6
2015-Jul-27 03:33N 51°19' E 004°19'0 0.0
2015-Jul-27 02:33N 51°19' E 004°19'0 0.0
2015-Jul-27 01:32N 51°19' E 004°19'0 0.0
2015-Jul-27 00:26N 51°19' E 004°19'0 0.0
2015-Jul-26 23:32N 51°19' E 004°19'0 0.0
2015-Jul-26 22:31N 51°19' E 004°19'0 0.0
2015-Jul-26 21:31N 51°19' E 004°19'0 0.0
2015-Jul-26 20:33N 51°19' E 004°19'0 0.0
2015-Jul-26 19:30N 51°19' E 004°19'0 0.0
2015-Jul-26 18:29N 51°19' E 004°19'0 0.0
2015-Jul-26 17:32N 51°19' E 004°19'0 0.0
2015-Jul-26 16:32N 51°19' E 004°19'0 0.2
2015-Jul-26 15:33N 51°20' E 004°20'2 2.0
2015-Jul-26 14:33N 51°21' E 004°17'1 1.3
2015-Jul-26 13:33N 51°21' E 004°15'9 8.6
2015-Jul-26 12:33N 51°23' E 004°02'7 6.9
2015-Jul-26 11:33N 51°21' E 003°52'9 9.3
2015-Jul-26 10:33N 51°26' E 003°40'1110.5
2015-Jul-26 09:33N 51°25' E 003°23'1414.5
2015-Jul-26 08:33N 51°28' E 003°00'22 4.3
2015-Jul-26 03:23N 51°47' E 003°18'0 0.0
2015-Jul-25 22:28N 51°47' E 003°18'6 6.8
2015-Jul-25 21:33N 51°53' E 003°18'6020.3
2015-Jul-25 18:33N 52°51' E 003°47'2215.1
2015-Jul-25 17:08N 53°04' E 004°15'2220.8
2015-Jul-25 16:04N 53°24' E 004°33'  

Dump ship's entire track history